createdAt,value
2018-10-11T00:01:08.477Z,43.13
2018-10-11T00:03:37.926Z,45.27
2018-10-11T00:06:09.656Z,43.57
2018-10-11T00:08:39.870Z,46.50
2018-10-11T00:11:09.566Z,42.47
2018-10-11T00:13:41.229Z,41.40
2018-10-11T00:16:11.685Z,41.23
2018-10-11T00:18:50.551Z,39.87
2018-10-11T00:21:19.921Z,41.40
2018-10-11T00:23:50.242Z,43.50
2018-10-11T00:26:24.052Z,43.53
2018-10-11T00:28:56.328Z,41.20
2018-10-11T00:31:26.940Z,39.97
2018-10-11T00:33:56.287Z,40.63
2018-10-11T00:36:27.180Z,44.37
2018-10-11T00:38:59.052Z,48.33
2018-10-11T00:41:31.114Z,43.70
2018-10-11T00:44:04.495Z,46.00
2018-10-11T00:46:35.736Z,44.00
2018-10-11T00:49:07.512Z,46.73
2018-10-11T00:51:39.419Z,43.97
2018-10-11T00:54:17.064Z,45.50
2018-10-11T00:56:48.424Z,44.97
2018-10-11T00:59:21.700Z,48.70
2018-10-11T01:01:53.150Z,45.90
2018-10-11T01:04:27.267Z,43.60
2018-10-11T01:06:59.832Z,47.97
2018-10-11T01:09:59.908Z,44.37
2018-10-11T01:12:29.835Z,47.40
2018-10-11T01:15:00.749Z,44.43
2018-10-11T01:17:32.537Z,48.90
2018-10-11T01:20:02.814Z,46.30
2018-10-11T01:22:33.399Z,44.67
2018-10-11T01:25:04.027Z,45.13
2018-10-11T01:27:37.452Z,47.00
2018-10-11T01:30:33.546Z,48.13
2018-10-11T01:33:05.331Z,48.37
2018-10-11T01:35:36.431Z,48.37
2018-10-11T01:38:07.665Z,46.20
2018-10-11T01:40:37.734Z,48.83
2018-10-11T01:43:07.435Z,49.23
2018-10-11T01:45:41.364Z,47.90
2018-10-11T01:48:12.069Z,49.80
2018-10-11T01:50:41.294Z,50.53
2018-10-11T01:53:14.251Z,46.67
2018-10-11T01:55:44.132Z,49.27
2018-10-11T01:58:16.144Z,47.10
2018-10-11T02:00:46.161Z,46.57
2018-10-11T02:03:16.879Z,51.70
2018-10-11T02:05:46.868Z,51.57
2018-10-11T02:08:26.948Z,49.80
2018-10-11T02:10:56.879Z,50.73
2018-10-11T02:13:38.878Z,51.47
2018-10-11T02:16:11.462Z,47.37
2018-10-11T02:18:53.182Z,49.73
2018-10-11T02:21:23.986Z,53.47
2018-10-11T02:23:54.428Z,51.70
2018-10-11T02:26:25.511Z,51.77
2018-10-11T02:28:57.943Z,51.70
2018-10-11T02:31:32.858Z,54.07
2018-10-11T02:34:03.155Z,51.73
2018-10-11T02:36:32.714Z,51.30
2018-10-11T02:39:22.423Z,53.60
2018-10-11T02:41:52.922Z,50.77
2018-10-11T02:44:22.397Z,54.73
2018-10-11T02:46:57.011Z,53.47
2018-10-11T02:50:16.433Z,53.20
2018-10-11T02:52:45.906Z,56.20
2018-10-11T02:55:28.522Z,54.43
2018-10-11T02:58:08.976Z,53.00
2018-10-11T03:00:40.391Z,53.87
2018-10-11T03:03:21.694Z,54.73
2018-10-11T03:05:51.562Z,52.47
2018-10-11T03:08:28.948Z,58.83
2018-10-11T03:10:58.734Z,55.60
2018-10-11T03:13:29.513Z,55.77
2018-10-11T03:16:07.315Z,56.47
2018-10-11T03:18:37.817Z,58.10
2018-10-11T03:21:08.592Z,56.43
2018-10-11T03:23:40.069Z,58.20
2018-10-11T03:26:12.042Z,59.30
2018-10-11T03:28:47.684Z,54.50
2018-10-11T03:31:19.738Z,57.33
2018-10-11T03:33:49.851Z,58.13
2018-10-11T03:36:22.473Z,58.83
2018-10-11T03:39:36.059Z,57.50
2018-10-11T03:42:09.521Z,55.47
2018-10-11T03:44:40.354Z,57.33
2018-10-11T03:47:10.036Z,56.10
2018-10-11T03:49:42.591Z,56.10
2018-10-11T03:52:11.874Z,57.37
2018-10-11T03:54:41.941Z,55.40
2018-10-11T03:57:12.651Z,55.23
2018-10-11T03:59:42.473Z,56.07
2018-10-11T04:02:12.551Z,54.63
2018-10-11T04:04:43.160Z,54.53
2018-10-11T04:07:16.648Z,52.17
2018-10-11T04:10:00.437Z,58.90
2018-10-11T04:12:31.514Z,53.37
2018-10-11T04:15:06.754Z,54.03
2018-10-11T04:17:42.703Z,53.20
2018-10-11T04:20:13.618Z,54.47
2018-10-11T04:22:44.742Z,53.47
2018-10-11T04:25:15.701Z,55.23
2018-10-11T04:27:45.983Z,54.53
2018-10-11T04:33:42.636Z,54.83
2018-10-11T04:36:13.231Z,57.83
2018-10-11T04:38:44.642Z,54.03
2018-10-11T04:41:24.668Z,53.57
2018-10-11T04:43:59.519Z,52.43
2018-10-11T04:49:12.791Z,57.33
2018-10-11T04:51:55.791Z,57.33
2018-10-11T04:54:32.827Z,52.23
2018-10-11T04:57:13.810Z,50.17
2018-10-11T04:59:48.289Z,50.80
2018-10-11T05:02:19.267Z,52.83
2018-10-11T05:04:54.807Z,52.17
2018-10-11T05:10:03.893Z,51.60
2018-10-11T05:12:40.744Z,47.80
2018-10-11T05:15:12.892Z,42.87
2018-10-11T05:17:45.054Z,45.83
2018-10-11T05:20:45.204Z,44.57
2018-10-11T05:23:20.899Z,44.90
2018-10-11T05:25:52.384Z,45.23
2018-10-11T05:28:59.514Z,46.40
2018-10-11T05:31:29.690Z,45.87
2018-10-11T05:34:06.956Z,43.73
2018-10-11T05:36:39.351Z,45.83
2018-10-11T05:47:49.327Z,43.43
2018-10-11T05:51:02.476Z,44.13
2018-10-11T05:53:46.489Z,44.27
2018-10-11T05:59:27.378Z,39.83
2018-10-11T06:07:40.010Z,36.87
2018-10-11T06:10:28.809Z,36.70
2018-10-11T06:15:53.877Z,39.83
2018-10-11T06:18:39.118Z,39.47
2018-10-11T06:21:10.558Z,37.53
2018-10-11T06:23:46.938Z,35.60
2018-10-11T06:26:22.216Z,37.00
2018-10-11T06:35:07.253Z,36.40
2018-10-11T06:40:26.562Z,36.83
2018-10-11T06:42:58.592Z,36.37
2018-10-11T06:51:07.057Z,34.97
2018-10-11T06:53:46.274Z,32.93
2018-10-11T06:56:27.690Z,35.73
2018-10-11T08:03:32.467Z,27.07
2018-10-11T08:06:03.145Z,26.43
2018-10-11T08:08:47.175Z,26.80
2018-10-11T08:11:21.487Z,29.83
2018-10-11T08:22:12.946Z,25.00
2018-10-11T08:24:52.811Z,24.90
2018-10-11T08:27:28.013Z,24.77
2018-10-11T08:29:58.432Z,24.50
2018-10-11T08:32:32.298Z,24.70
2018-10-11T08:35:02.409Z,22.43
2018-10-11T08:37:31.747Z,23.70
2018-10-11T08:40:01.194Z,23.53
2018-10-11T08:42:35.850Z,24.07
2018-10-11T08:45:07.103Z,24.50
2018-10-11T08:55:50.829Z,21.80
2018-10-11T08:58:32.124Z,21.87
2018-10-11T09:01:09.945Z,21.27
2018-10-11T09:03:44.900Z,21.77
2018-10-11T09:06:28.596Z,18.87
2018-10-11T09:09:09.050Z,19.80
2018-10-11T09:11:50.425Z,18.10
2018-10-11T09:14:33.247Z,17.43
2018-10-11T09:22:43.079Z,20.73
2018-10-11T09:25:26.295Z,15.83
2018-10-11T09:30:58.500Z,15.87
2018-10-11T09:33:41.054Z,14.93
2018-10-11T09:52:30.577Z,17.23
2018-10-11T09:55:07.063Z,15.83
2018-10-11T09:57:48.446Z,15.93
2018-10-11T10:00:58.318Z,17.30
2018-10-11T10:03:30.196Z,16.80
2018-10-11T10:06:03.652Z,18.13
2018-10-11T10:08:52.904Z,16.53
2018-10-11T10:11:27.981Z,16.37
2018-10-11T10:14:05.001Z,17.03
2018-10-11T10:16:45.242Z,18.53
2018-10-11T10:19:25.783Z,17.63
2018-10-11T10:22:07.968Z,16.07
2018-10-11T10:24:42.377Z,17.60
2018-10-11T10:27:14.452Z,17.33
2018-10-11T10:29:45.673Z,18.10
2018-10-11T10:32:21.972Z,18.03
2018-10-11T10:34:58.415Z,16.97
2018-10-11T10:37:30.902Z,16.93
2018-10-11T10:40:38.600Z,16.53
2018-10-11T10:43:17.992Z,17.53
2018-10-11T10:45:51.117Z,17.50
2018-10-11T10:49:00.441Z,18.13
2018-10-11T10:51:38.594Z,17.03
2018-10-11T10:54:14.172Z,18.73
2018-10-11T10:56:52.795Z,17.33
2018-10-11T10:59:33.575Z,17.73
2018-10-11T11:02:11.820Z,16.83
2018-10-11T11:04:43.546Z,17.07
2018-10-11T11:07:17.522Z,17.87
2018-10-11T11:10:16.873Z,16.60
2018-10-11T11:15:28.882Z,17.23
2018-10-11T11:18:00.366Z,16.70
2018-10-11T12:00:17.457Z,13.50
2018-10-11T12:08:25.879Z,14.33
2018-10-11T12:11:01.256Z,13.63
2018-10-11T12:16:12.545Z,14.23
2018-10-11T12:18:49.093Z,13.47
2018-10-11T12:24:15.157Z,15.03
2018-10-11T12:26:53.849Z,15.23
2018-10-11T12:29:33.510Z,14.77
2018-10-11T12:32:11.522Z,16.57
2018-10-11T12:37:43.285Z,16.23
2018-10-11T15:40:54.850Z,13.30
2018-10-11T15:43:41.278Z,14.17
2018-10-11T15:46:23.942Z,13.13
2018-10-11T15:49:19.989Z,13.70
2018-10-11T16:16:32.817Z,15.97
2018-10-11T16:19:22.126Z,16.53
2018-10-11T16:21:55.168Z,16.27
2018-10-11T16:27:14.340Z,17.37
2018-10-11T16:30:27.375Z,17.07
2018-10-11T16:33:05.729Z,17.93
2018-10-11T16:35:39.374Z,18.80
2018-10-11T16:38:23.198Z,17.57
2018-10-11T16:41:04.702Z,19.10
2018-10-11T16:49:10.665Z,19.33
2018-10-11T16:51:56.819Z,19.33
2018-10-11T16:54:33.427Z,20.40
2018-10-11T16:57:20.365Z,20.93
2018-10-11T16:59:55.050Z,21.87
2018-10-11T17:02:29.673Z,18.73
2018-10-11T17:05:08.276Z,19.33
2018-10-11T17:07:43.082Z,19.87
2018-10-11T17:10:36.645Z,20.70
2018-10-11T17:13:10.676Z,20.23
2018-10-11T17:15:51.353Z,19.60
2018-10-11T17:29:46.498Z,20.63
2018-10-11T17:35:15.151Z,20.87
2018-10-11T17:37:55.555Z,20.03
2018-10-11T17:40:39.142Z,20.93
2018-10-11T17:43:12.758Z,20.03
2018-10-11T17:48:25.166Z,23.63
2018-10-11T17:50:58.671Z,20.83
2018-10-11T18:02:56.916Z,20.20
2018-10-11T18:05:36.167Z,22.97
2018-10-11T18:19:21.341Z,18.47
2018-10-11T18:21:59.660Z,19.40
2018-10-11T18:24:36.146Z,20.07
2018-10-11T18:27:23.429Z,23.97
2018-10-11T18:30:06.450Z,18.73
2018-10-11T18:35:32.648Z,19.70
2018-10-11T18:38:11.128Z,20.10
2018-10-11T18:43:45.329Z,18.73
2018-10-11T19:11:31.727Z,20.07
2018-10-11T19:14:02.758Z,20.07
2018-10-11T19:16:33.572Z,19.87
2018-10-11T19:19:05.443Z,21.60
2018-10-11T19:21:39.841Z,19.70
2018-10-11T19:24:12.905Z,21.50
2018-10-11T19:26:44.237Z,19.43
2018-10-11T19:29:15.407Z,20.00
2018-10-11T19:31:46.886Z,21.23
2018-10-11T19:34:19.704Z,20.63
2018-10-11T19:36:59.110Z,20.90
2018-10-11T19:42:44.402Z,20.70
2018-10-11T19:59:27.196Z,21.27
2018-10-11T20:22:16.927Z,20.10
2018-10-11T20:37:31.332Z,19.50
2018-10-11T20:40:12.249Z,20.30
2018-10-11T20:42:57.045Z,19.73
2018-10-11T20:45:49.182Z,21.10
2018-10-11T20:48:28.972Z,19.60
2018-10-11T20:51:05.109Z,21.33
2018-10-11T20:53:41.426Z,21.80
2018-10-11T20:59:15.498Z,21.33
2018-10-11T21:04:33.013Z,21.07
2018-10-11T21:07:10.316Z,20.27
2018-10-11T21:15:00.472Z,22.10
2018-10-11T21:23:02.676Z,23.17
2018-10-11T21:25:33.468Z,22.77
2018-10-11T21:28:05.644Z,21.93
2018-10-11T21:30:41.985Z,21.27
2018-10-11T21:33:12.666Z,22.93
2018-10-11T21:35:49.083Z,21.13
2018-10-11T21:38:28.837Z,21.67
2018-10-11T21:41:03.321Z,21.83
2018-10-11T21:43:49.473Z,22.67
2018-10-11T21:46:21.572Z,24.47
2018-10-11T21:49:03.504Z,23.47
2018-10-11T21:51:42.497Z,23.17
2018-10-11T21:54:19.701Z,23.63
2018-10-11T21:57:10.006Z,22.67
2018-10-11T21:59:51.698Z,24.83
2018-10-11T22:02:31.292Z,22.57
2018-10-11T22:05:03.504Z,23.17
2018-10-11T22:07:42.229Z,23.70
2018-10-11T22:10:17.928Z,22.27
2018-10-11T22:12:56.568Z,23.80
2018-10-11T22:15:29.469Z,23.07
2018-10-11T22:18:01.683Z,25.40
2018-10-11T22:20:35.547Z,22.27
2018-10-11T22:23:17.391Z,22.60
2018-10-11T22:25:52.176Z,23.03
2018-10-11T22:28:27.717Z,24.10
2018-10-11T22:31:02.244Z,24.30
2018-10-11T22:33:42.856Z,23.57
2018-10-11T22:36:15.372Z,23.60
2018-10-11T22:38:49.137Z,23.77
2018-10-11T22:41:21.001Z,23.67
2018-10-11T22:44:04.945Z,26.63
2018-10-11T22:46:44.576Z,23.40
2018-10-11T22:49:20.280Z,23.67
2018-10-11T22:51:54.461Z,23.63
2018-10-11T22:54:26.641Z,24.27
2018-10-11T22:57:00.232Z,23.10
2018-10-11T22:59:44.892Z,24.03
2018-10-11T23:02:18.878Z,24.20
2018-10-11T23:04:51.111Z,22.13
2018-10-11T23:07:25.571Z,22.27
2018-10-11T23:10:05.300Z,23.60
2018-10-11T23:12:39.023Z,22.73
2018-10-11T23:15:08.686Z,24.33
2018-10-11T23:17:42.260Z,22.83
2018-10-11T23:20:13.637Z,23.13
2018-10-11T23:22:47.749Z,22.67
2018-10-11T23:25:18.332Z,25.63
2018-10-11T23:27:49.445Z,22.60
2018-10-11T23:33:09.726Z,22.10
2018-10-11T23:35:40.738Z,23.07
2018-10-11T23:38:15.597Z,21.90
2018-10-11T23:40:48.148Z,21.13
2018-10-11T23:43:18.552Z,21.57
2018-10-11T23:45:49.809Z,24.17
2018-10-11T23:48:20.786Z,22.87
2018-10-11T23:51:01.856Z,23.37
2018-10-11T23:56:14.496Z,23.20
2018-10-11T23:59:14.757Z,22.90
